Time;durP1;ratioP1;P1;durP2;ratioP2;P2;SDS_P1;SDS_P2;PMS_P1;PMS_P2;Temp;Humidity;BMP_temperature;BMP_pressure;BME280_temperature;BME280_humidity;BME280_pressure;Samples;Min_cycle;Max_cycle;Signal;HPM_P1;HPM_P2
2023/09/30 00:01:44;;;;;;;8.90;3.40;;;;;;;-128.00;-1.00;-1.00;100686;319;1004146;-33
2023/09/30 00:04:10;;;;;;;3.80;2.60;;;;;;;-128.00;-1.00;-1.00;100679;320;1003736;-36
2023/09/30 00:06:36;;;;;;;4.30;3.30;;;;;;;-128.00;-1.00;-1.00;100668;320;1002429;-34
2023/09/30 00:09:02;;;;;;;7.10;4.80;;;;;;;-128.00;-1.00;-1.00;100765;320;1003514;-31
2023/09/30 00:11:27;;;;;;;;;;;;;;;-128.00;-1.00;-1.00;100674;320;1003801;-35
2023/09/30 00:13:53;;;;;;;2.60;1.50;;;;;;;-128.00;-1.00;-1.00;100724;320;1003738;-32
2023/09/30 00:16:18;;;;;;;6.00;4.50;;;;;;;-128.00;-1.00;-1.00;100607;319;1003498;-33
2023/09/30 00:18:44;;;;;;;7.60;4.50;;;;;;;-128.00;-1.00;-1.00;100693;319;1002836;-31
2023/09/30 00:21:11;;;;;;;5.50;3.60;;;;;;;-128.00;-1.00;-1.00;100753;319;1003200;-35
2023/09/30 00:23:37;;;;;;;6.60;5.20;;;;;;;-128.00;-1.00;-1.00;100648;320;1003727;-37
2023/09/30 00:26:02;;;;;;;6.30;3.80;;;;;;;-128.00;-1.00;-1.00;100562;320;1003102;-34
2023/09/30 00:28:28;;;;;;;4.10;2.50;;;;;;;-128.00;-1.00;-1.00;100600;320;1003039;-34
2023/09/30 00:30:54;;;;;;;4.40;3.20;;;;;;;-128.00;-1.00;-1.00;100549;319;1002842;-36
2023/09/30 00:33:19;;;;;;;7.20;3.60;;;;;;;-128.00;-1.00;-1.00;100836;319;1003964;-34
2023/09/30 00:35:46;;;;;;;11.70;6.20;;;;;;;-128.00;-1.00;-1.00;100836;320;1002918;-30
2023/09/30 01:19:17;;;;;;;9.80;4.70;;;;;;;-99.27;15.08;19917.24;101550;315;1573152;-32
2023/09/30 01:21:48;;;;;;;8.10;5.60;;;;;;;-128.00;-1.00;-1.00;100590;316;1004347;-35
2023/09/30 01:24:15;;;;;;;1.40;1.30;;;;;;;-128.00;-1.00;-1.00;101078;316;1004870;-36
2023/09/30 01:26:42;;;;;;;6.20;4.30;;;;;;;-128.00;-1.00;-1.00;100788;317;1004944;-36
2023/09/30 01:29:10;;;;;;;19.90;3.70;;;;;;;-128.00;-1.00;-1.00;101090;315;1002791;-35
2023/09/30 01:31:37;;;;;;;8.10;4.20;;;;;;;-128.00;-1.00;-1.00;101064;315;1003185;-31
2023/09/30 01:34:03;;;;;;;9.00;5.40;;;;;;;-128.00;-1.00;-1.00;101033;316;1002567;-36
2023/09/30 01:36:28;;;;;;;9.80;4.30;;;;;;;-128.00;-1.00;-1.00;100977;316;1003814;-35
2023/09/30 01:38:54;;;;;;;4.50;3.60;;;;;;;-128.00;-1.00;-1.00;100999;317;1004675;-34
2023/09/30 01:41:20;;;;;;;4.20;3.20;;;;;;;-128.00;-1.00;-1.00;101062;315;1003363;-36
2023/09/30 01:43:46;;;;;;;6.20;4.70;;;;;;;-128.00;-1.00;-1.00;101079;315;1004799;-34
2023/09/30 01:46:12;;;;;;;10.10;3.90;;;;;;;-128.00;-1.00;-1.00;101089;315;1004236;-37
2023/09/30 01:48:38;;;;;;;12.30;825.90;;;;;;;-128.00;-1.00;-1.00;101035;317;1003337;-32
2023/09/30 01:51:04;;;;;;;12.50;4.70;;;;;;;-128.00;-1.00;-1.00;101043;315;1004290;-32
2023/09/30 01:53:29;;;;;;;11.30;5.90;;;;;;;-128.00;-1.00;-1.00;101079;315;1003122;-33
2023/09/30 01:55:56;;;;;;;5.60;4.60;;;;;;;-128.00;-1.00;-1.00;101052;315;1003580;-32
2023/09/30 01:58:21;;;;;;;6.60;5.20;;;;;;;-128.00;-1.00;-1.00;100857;316;1003511;-32
2023/09/30 02:00:47;;;;;;;5.80;4.90;;;;;;;-128.00;-1.00;-1.00;101041;315;1003243;-33
2023/09/30 02:03:12;;;;;;;7.20;3.70;;;;;;;-128.00;-1.00;-1.00;100993;315;1004678;-33
2023/09/30 02:05:39;;;;;;;6.20;4.90;;;;;;;-128.00;-1.00;-1.00;101095;316;1003789;-38
2023/09/30 02:08:05;;;;;;;21.60;6.50;;;;;;;-128.00;-1.00;-1.00;101126;315;1004665;-32
2023/09/30 02:10:33;;;;;;;5.10;4.30;;;;;;;-128.00;-1.00;-1.00;101058;315;1003415;-31
2023/09/30 02:13:05;;;;;;;17.10;6.80;;;;;;;-128.00;-1.00;-1.00;101097;315;1002355;-32
2023/09/30 02:15:32;;;;;;;13.00;7.00;;;;;;;-128.00;-1.00;-1.00;100930;315;1003157;-32
2023/09/30 02:17:57;;;;;;;4.70;3.50;;;;;;;-128.00;-1.00;-1.00;101049;317;1003228;-38
2023/09/30 02:20:25;;;;;;;6.10;4.70;;;;;;;-128.00;-1.00;-1.00;101039;316;1004335;-31
2023/09/30 02:22:52;;;;;;;8.10;4.80;;;;;;;-128.00;-1.00;-1.00;101007;316;1002888;-36
2023/09/30 02:25:18;;;;;;;6.80;4.50;;;;;;;-128.00;-1.00;-1.00;101062;316;1003181;-35
2023/09/30 02:27:44;;;;;;;5.70;5.10;;;;;;;-128.00;-1.00;-1.00;101054;316;1002756;-35
2023/09/30 02:30:11;;;;;;;8.60;5.50;;;;;;;-128.00;-1.00;-1.00;101103;317;1003379;-36
2023/09/30 02:32:39;;;;;;;5.10;4.60;;;;;;;-128.00;-1.00;-1.00;101025;316;1004133;-36
2023/09/30 02:35:06;;;;;;;7.90;7.10;;;;;;;-128.00;-1.00;-1.00;101143;316;1004632;-33
2023/09/30 02:37:35;;;;;;;9.80;6.90;;;;;;;-128.00;-1.00;-1.00;101025;316;1002512;-38
2023/09/30 02:40:04;;;;;;;6.50;5.30;;;;;;;-128.00;-1.00;-1.00;101088;316;1003318;-36
2023/09/30 02:42:30;;;;;;;11.50;7.30;;;;;;;-128.00;-1.00;-1.00;101108;316;1004042;-32
2023/09/30 02:44:55;;;;;;;8.60;4.90;;;;;;;-128.00;-1.00;-1.00;101019;316;1003333;-32
2023/09/30 02:47:21;;;;;;;9.30;6.20;;;;;;;-128.00;-1.00;-1.00;101092;316;1004246;-32
2023/09/30 02:49:47;;;;;;;7.50;6.50;;;;;;;-128.00;-1.00;-1.00;100819;319;1003119;-32
2023/09/30 02:52:13;;;;;;;9.00;5.10;;;;;;;-128.00;-1.00;-1.00;101073;316;1003287;-32
2023/09/30 02:54:39;;;;;;;7.00;6.30;;;;;;;-128.00;-1.00;-1.00;100982;316;1004047;-33
2023/09/30 02:57:04;;;;;;;2.50;1.90;;;;;;;-128.00;-1.00;-1.00;101087;316;1004620;-36
2023/09/30 02:59:30;;;;;;;7.70;6.00;;;;;;;-128.00;-1.00;-1.00;101028;316;1004520;-32
2023/09/30 03:01:56;;;;;;;7.50;5.80;;;;;;;-128.00;-1.00;-1.00;100994;316;1002779;-36
2023/09/30 03:04:25;;;;;;;9.20;7.10;;;;;;;-128.00;-1.00;-1.00;101062;317;1003913;-32
2023/09/30 03:06:51;;;;;;;9.30;5.90;;;;;;;-128.00;-1.00;-1.00;101089;316;1004429;-38
2023/09/30 03:09:17;;;;;;;10.70;7.30;;;;;;;-128.00;-1.00;-1.00;101045;316;1003724;-38
2023/09/30 03:11:43;;;;;;;8.80;5.10;;;;;;;-128.00;-1.00;-1.00;100975;317;1005078;-32
2023/09/30 03:14:12;;;;;;;9.10;7.30;;;;;;;-128.00;-1.00;-1.00;101094;316;1002940;-41
2023/09/30 03:16:40;;;;;;;11.10;9.10;;;;;;;-128.00;-1.00;-1.00;101031;316;1004195;-36
2023/09/30 03:19:08;;;;;;;8.20;6.60;;;;;;;-128.00;-1.00;-1.00;101005;316;1002600;-37
2023/09/30 03:21:37;;;;;;;10.10;5.70;;;;;;;-128.00;-1.00;-1.00;101101;316;1003500;-33
2023/09/30 03:24:04;;;;;;;11.20;7.90;;;;;;;-128.00;-1.00;-1.00;101045;316;1003004;-35
2023/09/30 03:26:30;;;;;;;9.40;6.10;;;;;;;-128.00;-1.00;-1.00;101066;316;1004582;-32
2023/09/30 03:28:56;;;;;;;10.10;8.00;;;;;;;-128.00;-1.00;-1.00;101060;316;1003161;-38
2023/09/30 03:31:22;;;;;;;11.70;6.60;;;;;;;-128.00;-1.00;-1.00;101029;316;1004816;-32
2023/09/30 03:33:51;;;;;;;8.10;6.00;;;;;;;-128.00;-1.00;-1.00;101094;316;1002739;-38
2023/09/30 03:36:18;;;;;;;8.40;5.90;;;;;;;-128.00;-1.00;-1.00;101067;316;1003157;-34
2023/09/30 03:38:44;;;;;;;14.90;8.50;;;;;;;-128.00;-1.00;-1.00;101013;316;1002692;-32
2023/09/30 03:41:13;;;;;;;6.50;4.90;;;;;;;-128.00;-1.00;-1.00;101027;316;1003103;-31
2023/09/30 03:43:41;;;;;;;9.90;7.00;;;;;;;-128.00;-1.00;-1.00;101048;316;1003223;-38
2023/09/30 03:46:11;;;;;;;14.30;6.80;;;;;;;-128.00;-1.00;-1.00;101112;316;1003172;-33
2023/09/30 03:48:39;;;;;;;10.10;7.80;;;;;;;-128.00;-1.00;-1.00;101066;316;1003987;-32
2023/09/30 03:51:15;;;;;;;11.30;8.40;;;;;;;-128.00;-1.00;-1.00;101045;316;1004159;-38
2023/09/30 03:53:44;;;;;;;13.30;7.40;;;;;;;-128.00;-1.00;-1.00;101121;316;1003291;-32
2023/09/30 03:56:11;;;;;;;13.50;7.00;;;;;;;-128.00;-1.00;-1.00;101038;316;1003504;-36
2023/09/30 03:58:38;;;;;;;7.60;6.50;;;;;;;-128.00;-1.00;-1.00;101020;316;1002641;-36
2023/09/30 04:01:04;;;;;;;3.20;1.70;;;;;;;-128.00;-1.00;-1.00;101122;316;1004457;-31
2023/09/30 04:03:33;;;;;;;16.20;6.00;;;;;;;-128.00;-1.00;-1.00;101081;316;1002954;-32
2023/09/30 04:05:59;;;;;;;9.10;5.50;;;;;;;-128.00;-1.00;-1.00;80843;316;7355062;-36
2023/09/30 04:08:24;;;;;;;7.10;6.00;;;;;;;-128.00;-1.00;-1.00;93333;316;5784199;-36
2023/09/30 04:10:50;;;;;;;12.40;6.40;;;;;;;-128.00;-1.00;-1.00;100993;317;1004831;-38
2023/09/30 04:13:16;;;;;;;7.50;5.80;;;;;;;-128.00;-1.00;-1.00;100036;316;2270704;-31
2023/09/30 04:15:44;;;;;;;10.00;7.00;;;;;;;-128.00;-1.00;-1.00;101020;317;1003631;-33
2023/09/30 04:18:11;;;;;;;7.70;6.20;;;;;;;-128.00;-1.00;-1.00;101033;316;1003141;-34
2023/09/30 04:20:39;;;;;;;6.10;4.80;;;;;;;-128.00;-1.00;-1.00;101135;316;1002969;-34
2023/09/30 04:23:06;;;;;;;14.80;9.20;;;;;;;-128.00;-1.00;-1.00;69814;316;7504364;-37
2023/09/30 04:25:32;;;;;;;13.40;7.30;;;;;;;-128.00;-1.00;-1.00;32189;316;7504498;-38
2023/09/30 04:27:58;;;;;;;6.10;4.70;;;;;;;-128.00;-1.00;-1.00;67054;316;7504492;-38
2023/09/30 04:30:25;;;;;;;15.60;8.90;;;;;;;-128.00;-1.00;-1.00;39039;320;7504436;-32
2023/09/30 04:32:52;;;;;;;6.90;5.50;;;;;;;-128.00;-1.00;-1.00;26745;316;7504822;-35
2023/09/30 04:35:18;;;;;;;8.60;6.60;;;;;;;-128.00;-1.00;-1.00;19077;317;7504471;-38
2023/09/30 04:37:44;;;;;;;11.10;7.60;;;;;;;-128.00;-1.00;-1.00;19067;316;7506675;-34
2023/09/30 04:40:15;;;;;;;8.60;7.70;;;;;;;-128.00;-1.00;-1.00;20230;316;7505191;-34
2023/09/30 04:42:44;;;;;;;9.60;5.30;;;;;;;-128.00;-1.00;-1.00;19071;322;7504923;-37
2023/09/30 04:45:11;;;;;;;10.60;5.90;;;;;;;-128.00;-1.00;-1.00;19490;317;7505953;-34
2023/09/30 04:47:38;;;;;;;8.90;7.30;;;;;;;-128.00;-1.00;-1.00;55702;317;7504686;-32
2023/09/30 04:50:08;;;;;;;10.10;7.20;;;;;;;-128.00;-1.00;-1.00;46861;316;7504778;-35
2023/09/30 04:52:36;;;;;;;8.70;5.40;;;;;;;-128.00;-1.00;-1.00;23939;316;7505102;-33
2023/09/30 04:55:04;;;;;;;10.90;7.60;;;;;;;-128.00;-1.00;-1.00;30062;316;7504180;-35
2023/09/30 04:57:31;;;;;;;14.70;7.40;;;;;;;-128.00;-1.00;-1.00;19493;316;7505495;-36
2023/09/30 04:59:57;;;;;;;12.10;7.50;;;;;;;-128.00;-1.00;-1.00;19186;316;7504198;-33
2023/09/30 05:02:24;;;;;;;11.30;7.10;;;;;;;-128.00;-1.00;-1.00;19065;316;7504659;-32
2023/09/30 05:04:49;;;;;;;7.60;6.10;;;;;;;-128.00;-1.00;-1.00;19080;320;7504847;-35
2023/09/30 05:07:16;;;;;;;11.80;6.50;;;;;;;-128.00;-1.00;-1.00;19047;316;7505198;-32
2023/09/30 05:09:42;;;;;;;17.70;7.10;;;;;;;-128.00;-1.00;-1.00;19484;316;7505280;-34
2023/09/30 05:12:09;;;;;;;12.20;5.60;;;;;;;-128.00;-1.00;-1.00;19081;316;7504562;-38
2023/09/30 05:14:36;;;;;;;14.00;6.50;;;;;;;-128.00;-1.00;-1.00;19070;316;7505445;-31
2023/09/30 05:17:04;;;;;;;11.10;6.40;;;;;;;-128.00;-1.00;-1.00;19077;316;7504713;-35
2023/09/30 05:19:31;;;;;;;10.30;4.80;;;;;;;-128.00;-1.00;-1.00;19073;320;7506352;-31
2023/09/30 05:21:57;;;;;;;10.10;6.00;;;;;;;-128.00;-1.00;-1.00;19055;322;7506617;-36
2023/09/30 05:24:23;;;;;;;5.00;3.60;;;;;;;-128.00;-1.00;-1.00;19059;320;7504863;-36
2023/09/30 05:26:49;;;;;;;6.70;4.80;;;;;;;-128.00;-1.00;-1.00;19057;317;7505012;-35
2023/09/30 05:29:16;;;;;;;9.30;4.00;;;;;;;-128.00;-1.00;-1.00;19085;322;7504925;-35
2023/09/30 05:31:42;;;;;;;9.50;3.70;;;;;;;-128.00;-1.00;-1.00;19064;316;7504349;-31
2023/09/30 05:34:08;;;;;;;5.30;3.90;;;;;;;-128.00;-1.00;-1.00;19078;316;7504757;-34
2023/09/30 05:36:34;;;;;;;13.50;6.70;;;;;;;-128.00;-1.00;-1.00;19053;316;7504992;-38
2023/09/30 05:39:00;;;;;;;7.30;5.90;;;;;;;-128.00;-1.00;-1.00;19060;320;7505111;-34
2023/09/30 05:41:26;;;;;;;10.90;7.40;;;;;;;-128.00;-1.00;-1.00;19491;316;7504826;-34
2023/09/30 05:43:53;;;;;;;16.50;7.20;;;;;;;-128.00;-1.00;-1.00;19072;322;7505215;-34
2023/09/30 05:46:19;;;;;;;19.10;6.40;;;;;;;-128.00;-1.00;-1.00;19065;316;7505070;-37
2023/09/30 05:48:44;;;;;;;11.10;6.20;;;;;;;-128.00;-1.00;-1.00;19083;316;7506422;-33
2023/09/30 05:51:14;;;;;;;14.40;7.40;;;;;;;-128.00;-1.00;-1.00;19054;316;7506028;-37
2023/09/30 05:53:41;;;;;;;5.90;5.30;;;;;;;-128.00;-1.00;-1.00;19090;316;7506451;-33
2023/09/30 05:56:07;;;;;;;9.20;7.50;;;;;;;-128.00;-1.00;-1.00;19083;316;7504654;-34
2023/09/30 05:58:33;;;;;;;7.60;6.70;;;;;;;-128.00;-1.00;-1.00;19075;316;7506444;-38
2023/09/30 06:01:00;;;;;;;6.60;5.70;;;;;;;-128.00;-1.00;-1.00;19061;322;7505562;-38
2023/09/30 06:03:29;;;;;;;15.80;7.40;;;;;;;-128.00;-1.00;-1.00;19082;321;7506554;-31
2023/09/30 06:05:55;;;;;;;10.30;7.10;;;;;;;-128.00;-1.00;-1.00;19084;316;7505340;-31
2023/09/30 06:08:21;;;;;;;9.10;5.30;;;;;;;-128.00;-1.00;-1.00;19053;316;7504869;-32
2023/09/30 06:10:47;;;;;;;4.70;3.90;;;;;;;-128.00;-1.00;-1.00;22101;316;7505334;-32
2023/09/30 06:13:15;;;;;;;12.70;7.10;;;;;;;-128.00;-1.00;-1.00;36758;316;7413183;-37
2023/09/30 06:15:41;;;;;;;6.90;6.00;;;;;;;-128.00;-1.00;-1.00;19088;320;7505389;-33
2023/09/30 06:18:07;;;;;;;9.40;5.70;;;;;;;-128.00;-1.00;-1.00;19044;316;7506561;-35
2023/09/30 06:20:35;;;;;;;12.30;6.00;;;;;;;-128.00;-1.00;-1.00;19576;317;7504381;-40
2023/09/30 06:23:01;;;;;;;9.40;6.20;;;;;;;-128.00;-1.00;-1.00;21764;320;7504589;-32
2023/09/30 06:25:28;;;;;;;12.10;5.90;;;;;;;-128.00;-1.00;-1.00;20230;316;7504470;-36
2023/09/30 06:27:54;;;;;;;6.30;4.40;;;;;;;-128.00;-1.00;-1.00;19476;316;7504843;-36
2023/09/30 06:30:20;;;;;;;10.60;5.80;;;;;;;-128.00;-1.00;-1.00;19067;316;7507036;-35
2023/09/30 06:32:47;;;;;;;10.90;6.80;;;;;;;-128.00;-1.00;-1.00;19088;316;7505011;-36
2023/09/30 06:35:12;;;;;;;8.40;4.50;;;;;;;-128.00;-1.00;-1.00;19075;316;7505630;-35
2023/09/30 06:37:39;;;;;;;9.50;5.30;;;;;;;-128.00;-1.00;-1.00;19069;317;7506219;-36
2023/09/30 06:40:08;;;;;;;6.30;4.70;;;;;;;-128.00;-1.00;-1.00;19072;322;7505550;-32
2023/09/30 06:42:35;;;;;;;7.10;5.70;;;;;;;-128.00;-1.00;-1.00;19050;316;7504986;-32
2023/09/30 06:45:05;;;;;;;5.20;3.80;;;;;;;-128.00;-1.00;-1.00;19066;316;7504800;-31
2023/09/30 06:47:34;;;;;;;11.90;5.60;;;;;;;-128.00;-1.00;-1.00;19081;316;7505926;-36
2023/09/30 06:50:07;;;;;;;8.60;5.20;;;;;;;-128.00;-1.00;-1.00;19069;318;7504600;-36
2023/09/30 06:52:41;;;;;;;8.50;4.90;;;;;;;-128.00;-1.00;-1.00;19066;316;7506502;-36
2023/09/30 06:55:07;;;;;;;8.40;5.10;;;;;;;-128.00;-1.00;-1.00;19074;316;7505006;-36
2023/09/30 06:57:36;;;;;;;13.70;5.80;;;;;;;-128.00;-1.00;-1.00;19075;316;7505557;-36
2023/09/30 07:00:12;;;;;;;10.00;5.50;;;;;;;-128.00;-1.00;-1.00;19074;316;7507922;-36
2023/09/30 07:02:38;;;;;;;6.70;5.40;;;;;;;-128.00;-1.00;-1.00;19079;316;7504800;-32
2023/09/30 07:05:14;;;;;;;10.50;7.10;;;;;;;-128.00;-1.00;-1.00;20218;322;7504706;-32
2023/09/30 07:07:40;;;;;;;13.90;5.60;;;;;;;-128.00;-1.00;-1.00;19062;316;7504847;-32
2023/09/30 07:10:07;;;;;;;9.80;6.10;;;;;;;-128.00;-1.00;-1.00;19073;316;7506038;-35
2023/09/30 07:12:35;;;;;;;11.10;5.10;;;;;;;-128.00;-1.00;-1.00;19068;316;7504709;-31
2023/09/30 07:15:02;;;;;;;9.40;4.70;;;;;;;-128.00;-1.00;-1.00;19076;317;7507085;-32
2023/09/30 07:17:28;;;;;;;12.40;4.90;;;;;;;-128.00;-1.00;-1.00;19058;316;7504507;-35
2023/09/30 07:19:54;;;;;;;8.80;4.80;;;;;;;-128.00;-1.00;-1.00;19081;317;7505124;-40
2023/09/30 07:22:20;;;;;;;12.00;5.30;;;;;;;-128.00;-1.00;-1.00;19052;316;7506345;-36
2023/09/30 07:24:46;;;;;;;8.60;5.60;;;;;;;-128.00;-1.00;-1.00;19061;316;7504886;-31
2023/09/30 07:27:12;;;;;;;2.70;2.30;;;;;;;-128.00;-1.00;-1.00;19058;321;7504720;-35
2023/09/30 07:29:38;;;;;;;6.70;2.90;;;;;;;-128.00;-1.00;-1.00;19048;316;7505279;-39
2023/09/30 07:32:04;;;;;;;11.20;2.60;;;;;;;-128.00;-1.00;-1.00;19080;316;7504970;-32
2023/09/30 07:34:30;;;;;;;11.20;5.10;;;;;;;-128.00;-1.00;-1.00;19068;316;7505041;-31
2023/09/30 07:36:55;;;;;;;6.40;3.90;;;;;;;-128.00;-1.00;-1.00;19079;316;7505843;-38
2023/09/30 07:39:21;;;;;;;9.00;3.70;;;;;;;-128.00;-1.00;-1.00;19474;316;7504975;-35
2023/09/30 07:41:48;;;;;;;9.70;6.10;;;;;;;-128.00;-1.00;-1.00;19490;316;7504721;-32
2023/09/30 07:44:14;;;;;;;6.60;3.70;;;;;;;-128.00;-1.00;-1.00;19483;320;7504654;-31
2023/09/30 07:46:40;;;;;;;9.10;4.10;;;;;;;-128.00;-1.00;-1.00;19511;316;7506899;-31
2023/09/30 07:49:08;;;;;;;7.10;4.60;;;;;;;-128.00;-1.00;-1.00;19065;316;7505070;-32
2023/09/30 07:51:35;;;;;;;5.70;3.00;;;;;;;-128.00;-1.00;-1.00;19010;317;7504772;-37
2023/09/30 07:54:01;;;;;;;6.50;3.40;;;;;;;-128.00;-1.00;-1.00;19044;317;7505119;-37
2023/09/30 07:56:26;;;;;;;7.70;4.30;;;;;;;-128.00;-1.00;-1.00;19080;317;7505030;-38
2023/09/30 07:58:52;;;;;;;7.20;4.20;;;;;;;-128.00;-1.00;-1.00;19084;316;7505143;-36
2023/09/30 08:01:19;;;;;;;7.10;4.50;;;;;;;-128.00;-1.00;-1.00;19491;316;7505007;-35
2023/09/30 08:03:45;;;;;;;6.20;4.50;;;;;;;-128.00;-1.00;-1.00;19070;321;7504775;-32
2023/09/30 08:06:10;;;;;;;6.20;4.70;;;;;;;-128.00;-1.00;-1.00;19049;321;7505366;-36
2023/09/30 08:08:36;;;;;;;8.70;5.20;;;;;;;-128.00;-1.00;-1.00;19470;317;7504754;-31
2023/09/30 08:11:04;;;;;;;5.90;5.10;;;;;;;-128.00;-1.00;-1.00;19486;321;7504778;-35
2023/09/30 08:13:32;;;;;;;12.30;4.40;;;;;;;-128.00;-1.00;-1.00;19084;317;7505034;-35
2023/09/30 08:15:59;;;;;;;7.80;3.60;;;;;;;-128.00;-1.00;-1.00;19049;322;7505110;-31
2023/09/30 08:18:24;;;;;;;8.80;4.90;;;;;;;-128.00;-1.00;-1.00;19068;316;7504720;-31
2023/09/30 08:20:50;;;;;;;9.90;4.50;;;;;;;-128.00;-1.00;-1.00;19480;316;7505034;-34
2023/09/30 08:23:17;;;;;;;8.90;3.90;;;;;;;-128.00;-1.00;-1.00;19480;317;7505197;-37
2023/09/30 08:25:43;;;;;;;6.40;4.60;;;;;;;-128.00;-1.00;-1.00;19487;320;7504691;-32
2023/09/30 08:28:09;;;;;;;7.60;5.00;;;;;;;-128.00;-1.00;-1.00;19496;316;7504625;-36
2023/09/30 08:30:36;;;;;;;9.60;4.90;;;;;;;-128.00;-1.00;-1.00;19488;316;7505308;-32
2023/09/30 08:33:03;;;;;;;7.00;4.30;;;;;;;-128.00;-1.00;-1.00;19076;316;7504588;-37
2023/09/30 08:35:30;;;;;;;6.20;4.60;;;;;;;-128.00;-1.00;-1.00;19071;316;7506474;-37
2023/09/30 08:37:55;;;;;;;8.30;4.10;;;;;;;-128.00;-1.00;-1.00;19059;322;7506057;-37
2023/09/30 08:40:21;;;;;;;6.20;3.30;;;;;;;-128.00;-1.00;-1.00;19068;321;7505408;-37
2023/09/30 08:42:50;;;;;;;8.60;2.50;;;;;;;-128.00;-1.00;-1.00;19082;316;7505116;-37
2023/09/30 08:45:16;;;;;;;12.40;3.80;;;;;;;-128.00;-1.00;-1.00;19073;316;7505145;-32
2023/09/30 08:47:42;;;;;;;3.80;2.30;;;;;;;-128.00;-1.00;-1.00;19494;322;7506792;-33
2023/09/30 08:50:10;;;;;;;2.50;1.00;;;;;;;-128.00;-1.00;-1.00;19500;321;7505137;-34
2023/09/30 08:52:39;;;;;;;8.60;1.90;;;;;;;-128.00;-1.00;-1.00;19068;316;7507127;-34
2023/09/30 08:55:06;;;;;;;1.50;1.00;;;;;;;-128.00;-1.00;-1.00;19058;321;7505534;-33
2023/09/30 08:57:31;;;;;;;14.30;1.50;;;;;;;-128.00;-1.00;-1.00;19066;320;7505298;-37
2023/09/30 08:59:57;;;;;;;10.00;2.50;;;;;;;-128.00;-1.00;-1.00;19056;321;7506480;-33
2023/09/30 09:02:23;;;;;;;4.90;2.70;;;;;;;-128.00;-1.00;-1.00;19050;321;7505007;-35
2023/09/30 09:04:50;;;;;;;4.40;1.40;;;;;;;-128.00;-1.00;-1.00;19044;320;7504731;-32
2023/09/30 09:07:16;;;;;;;3.00;1.40;;;;;;;-128.00;-1.00;-1.00;19072;322;7504427;-31
2023/09/30 09:09:42;;;;;;;2.00;0.90;;;;;;;-128.00;-1.00;-1.00;19067;316;7504661;-35
2023/09/30 09:12:19;;;;;;;7.70;2.30;;;;;;;-128.00;-1.00;-1.00;19074;317;7504901;-36
2023/09/30 09:14:46;;;;;;;4.10;2.00;;;;;;;-128.00;-1.00;-1.00;19083;317;7505007;-32
2023/09/30 09:17:13;;;;;;;7.80;2.80;;;;;;;-128.00;-1.00;-1.00;19059;322;7505068;-38
2023/09/30 09:19:39;;;;;;;3.70;1.60;;;;;;;-128.00;-1.00;-1.00;19072;316;7504634;-32
2023/09/30 09:22:06;;;;;;;2.10;1.50;;;;;;;-128.00;-1.00;-1.00;18764;316;8343028;-32
2023/09/30 09:24:33;;;;;;;1.90;1.00;;;;;;;-128.00;-1.00;-1.00;19061;316;7504623;-36
2023/09/30 09:27:07;;;;;;;3.10;1.10;;;;;;;-128.00;-1.00;-1.00;19048;316;7504317;-35
2023/09/30 09:29:34;;;;;;;2.40;1.30;;;;;;;-128.00;-1.00;-1.00;19077;316;7506493;-35
2023/09/30 09:32:13;;;;;;;18.00;1.60;;;;;;;-128.00;-1.00;-1.00;19066;316;7504416;-36
2023/09/30 09:34:39;;;;;;;1.60;0.90;;;;;;;-128.00;-1.00;-1.00;19066;316;7505068;-36
2023/09/30 09:37:18;;;;;;;4.90;1.00;;;;;;;-128.00;-1.00;-1.00;19005;323;7505466;-36
2023/09/30 09:39:55;;;;;;;3.10;0.90;;;;;;;-128.00;-1.00;-1.00;19060;316;7506307;-32
2023/09/30 09:42:31;;;;;;;6.60;1.80;;;;;;;-128.00;-1.00;-1.00;19068;317;7504770;-35
2023/09/30 09:45:00;;;;;;;7.80;1.20;;;;;;;-128.00;-1.00;-1.00;19053;316;7506283;-31
2023/09/30 09:47:26;;;;;;;9.80;1.60;;;;;;;-128.00;-1.00;-1.00;19026;321;7506112;-36
2023/09/30 09:49:53;;;;;;;4.50;0.60;;;;;;;-128.00;-1.00;-1.00;19075;316;7504938;-36
2023/09/30 09:52:19;;;;;;;3.80;0.90;;;;;;;-128.00;-1.00;-1.00;19073;316;7505129;-36
2023/09/30 09:54:46;;;;;;;4.70;1.30;;;;;;;-128.00;-1.00;-1.00;19061;321;7506653;-35
2023/09/30 09:57:12;;;;;;;7.00;2.40;;;;;;;-128.00;-1.00;-1.00;19050;321;7505079;-32
2023/09/30 09:59:39;;;;;;;6.60;2.40;;;;;;;-128.00;-1.00;-1.00;19086;316;7505473;-36
2023/09/30 10:02:10;;;;;;;4.50;1.60;;;;;;;-128.00;-1.00;-1.00;19066;316;7505082;-32
2023/09/30 10:04:36;;;;;;;0.40;0.40;;;;;;;-128.00;-1.00;-1.00;19089;316;7506547;-31
2023/09/30 10:07:03;;;;;;;3.10;1.50;;;;;;;-128.00;-1.00;-1.00;19090;322;7506695;-31
2023/09/30 10:09:29;;;;;;;5.30;1.80;;;;;;;-128.00;-1.00;-1.00;19066;317;7505185;-35
2023/09/30 10:11:59;;;;;;;6.60;2.00;;;;;;;-128.00;-1.00;-1.00;19494;316;7505038;-35
2023/09/30 10:14:35;;;;;;;8.00;1.90;;;;;;;-128.00;-1.00;-1.00;19070;322;7505072;-31
2023/09/30 10:17:03;;;;;;;2.70;1.30;;;;;;;-128.00;-1.00;-1.00;19083;321;7504624;-32
2023/09/30 10:19:30;;;;;;;6.20;2.60;;;;;;;-128.00;-1.00;-1.00;19072;316;7505308;-31
2023/09/30 10:22:21;;;;;;;10.70;1.60;;;;;;;-128.00;-1.00;-1.00;19066;316;7506543;-31
2023/09/30 10:24:49;;;;;;;2.80;1.10;;;;;;;-128.00;-1.00;-1.00;19081;316;7506450;-35
2023/09/30 10:27:32;;;;;;;3.80;1.60;;;;;;;-128.00;-1.00;-1.00;19061;317;7505367;-32
2023/09/30 10:30:10;;;;;;;4.40;1.20;;;;;;;-128.00;-1.00;-1.00;19050;321;7504796;-35
2023/09/30 10:33:07;;;;;;;11.20;2.00;;;;;;;-128.00;-1.00;-1.00;19064;316;7504527;-32
2023/09/30 10:35:42;;;;;;;8.80;1.60;;;;;;;-128.00;-1.00;-1.00;19058;317;7504855;-36
2023/09/30 10:38:40;;;;;;;5.40;1.60;;;;;;;-128.00;-1.00;-1.00;19034;317;7506562;-32
2023/09/30 10:41:07;;;;;;;3.40;1.10;;;;;;;-128.00;-1.00;-1.00;19084;316;7504909;-32
2023/09/30 10:43:37;;;;;;;3.90;1.60;;;;;;;-128.00;-1.00;-1.00;19069;316;7506495;-31
2023/09/30 10:46:08;;;;;;;1.40;0.70;;;;;;;-128.00;-1.00;-1.00;19067;316;7506111;-31
2023/09/30 10:48:38;;;;;;;6.40;1.50;;;;;;;-128.00;-1.00;-1.00;19057;316;7505383;-31
2023/09/30 10:51:11;;;;;;;2.60;0.80;;;;;;;-128.00;-1.00;-1.00;19048;316;7505049;-32
2023/09/30 10:53:45;;;;;;;9.00;1.20;;;;;;;-128.00;-1.00;-1.00;19053;316;7506723;-35
2023/09/30 10:56:11;;;;;;;2.60;1.10;;;;;;;-128.00;-1.00;-1.00;19063;320;7504361;-31
2023/09/30 10:58:49;;;;;;;2.30;0.90;;;;;;;-128.00;-1.00;-1.00;19043;316;7506611;-36
2023/09/30 11:01:22;;;;;;;3.90;1.30;;;;;;;-128.00;-1.00;-1.00;19068;321;7506687;-35
2023/09/30 11:03:52;;;;;;;6.40;2.00;;;;;;;-128.00;-1.00;-1.00;19062;317;7504873;-35
2023/09/30 11:06:21;;;;;;;1.80;0.70;;;;;;;-128.00;-1.00;-1.00;19018;319;7505095;-32
2023/09/30 11:08:54;;;;;;;1.60;0.90;;;;;;;-128.00;-1.00;-1.00;19076;316;7506038;-36
2023/09/30 11:11:48;;;;;;;3.70;0.90;;;;;;;-128.00;-1.00;-1.00;19075;316;7504905;-33
2023/09/30 11:14:27;;;;;;;2.90;0.80;;;;;;;-128.00;-1.00;-1.00;19064;316;7505554;-37
2023/09/30 11:16:53;;;;;;;6.70;1.80;;;;;;;-128.00;-1.00;-1.00;19099;316;7504198;-37
2023/09/30 11:19:23;;;;;;;2.90;1.30;;;;;;;-128.00;-1.00;-1.00;19054;316;7505072;-33
2023/09/30 11:21:50;;;;;;;4.80;1.00;;;;;;;-128.00;-1.00;-1.00;19067;316;7505240;-37
2023/09/30 11:24:16;;;;;;;1.40;0.80;;;;;;;-128.00;-1.00;-1.00;19073;316;7505517;-32
2023/09/30 11:26:41;;;;;;;7.30;1.30;;;;;;;-128.00;-1.00;-1.00;19062;322;7504630;-37
2023/09/30 11:29:12;;;;;;;5.50;1.50;;;;;;;-128.00;-1.00;-1.00;19078;317;7506256;-32
2023/09/30 11:31:39;;;;;;;2.30;0.60;;;;;;;-128.00;-1.00;-1.00;19075;316;7504956;-32
2023/09/30 11:34:07;;;;;;;6.20;1.10;;;;;;;-128.00;-1.00;-1.00;19069;320;7505612;-32
2023/09/30 11:36:34;;;;;;;3.00;1.30;;;;;;;-128.00;-1.00;-1.00;19045;321;7506160;-31
2023/09/30 11:39:02;;;;;;;15.30;1.00;;;;;;;-128.00;-1.00;-1.00;19057;316;7504784;-35
2023/09/30 11:41:41;;;;;;;4.00;1.50;;;;;;;-128.00;-1.00;-1.00;19075;316;7505057;-35
2023/09/30 11:44:08;;;;;;;6.90;1.20;;;;;;;-128.00;-1.00;-1.00;19061;316;7504929;-36
2023/09/30 11:46:59;;;;;;;4.40;1.00;;;;;;;-128.00;-1.00;-1.00;19073;316;7506336;-32
2023/09/30 11:49:30;;;;;;;3.70;1.10;;;;;;;-128.00;-1.00;-1.00;19064;316;7504527;-36
2023/09/30 11:51:58;;;;;;;0.80;0.50;;;;;;;-128.00;-1.00;-1.00;19077;316;7506345;-32
2023/09/30 11:54:46;;;;;;;1.60;0.80;;;;;;;-128.00;-1.00;-1.00;19054;316;7505537;-35
2023/09/30 11:57:18;;;;;;;3.80;0.90;;;;;;;-128.00;-1.00;-1.00;19072;317;7504899;-36
2023/09/30 11:59:45;;;;;;;5.30;1.40;;;;;;;-128.00;-1.00;-1.00;19064;322;7504968;-32
2023/09/30 12:02:11;;;;;;;3.90;1.20;;;;;;;-128.00;-1.00;-1.00;19075;316;7506311;-36
2023/09/30 12:04:40;;;;;;;3.70;1.40;;;;;;;-128.00;-1.00;-1.00;19066;316;7504644;-32
2023/09/30 12:07:09;;;;;;;3.80;0.80;;;;;;;-128.00;-1.00;-1.00;19065;316;7504668;-32
2023/09/30 12:09:37;;;;;;;4.90;1.10;;;;;;;-128.00;-1.00;-1.00;19050;321;7504855;-32
2023/09/30 12:12:03;;;;;;;3.20;1.10;;;;;;;-128.00;-1.00;-1.00;19039;316;7505332;-36
2023/09/30 12:14:30;;;;;;;14.10;0.90;;;;;;;-128.00;-1.00;-1.00;19060;316;7505884;-32